Latest Weather Observations for South Channel Island

IDV60801

Issued at 2:35 pm EST Tuesday 16 September 2014 (issued every 30 minutes, with the page automatically refreshed every 10 minutes)

About weather observations | Map of weather stations | Latest weather observations for VIC | Other Formats
Station Details ID: 086344 Name: SOUTH CHANNEL ISLAND Lat: -38.31 Lon: 144.80 Height: 9.0 m
Data from the previous 72 hours. | See also: Recent months for locations in Victoria
Date/Time
EST
Temp
°C
App
Temp
°C
Dew
Point
Rel
Hum
%
Delta-T
°C
Wind Press
QNH
hPa
Press
MSL
hPa
Rain
since 9 am
mm
Dir
 
Spd
km/h
Gust
km/h
Spd
kts
Gust
kts
16/02:30pm - - - - - SW 52 61 28 33 - - -
16/02:00pm - - - - - SW 48 56 26 30 - - -
16/01:30pm - - - - - SW 48 56 26 30 - - -
16/01:00pm - - - - - SW 44 56 24 30 - - -
16/12:30pm - - - - - SW 35 50 19 27 - - -
16/12:29pm - - - - - SW 33 50 18 27 - - -
16/12:00pm - - - - - SW 26 30 14 16 - - -
16/11:30am - - - - - SSW 22 24 12 13 - - -
16/11:00am - - - - - SSW 26 28 14 15 - - -
16/10:30am - - - - - SW 20 26 11 14 - - -
16/10:00am - - - - - SW 20 28 11 15 - - -
16/09:30am - - - - - SSW 15 17 8 9 - - -
16/09:00am - - - - - S 13 17 7 9 - - -
16/08:30am - - - - - S 22 26 12 14 - - -
16/08:00am - - - - - SSW 24 28 13 15 - - -
16/07:30am - - - - - SW 24 28 13 15 - - -
16/07:00am - - - - - SW 24 28 13 15 - - -
16/06:30am - - - - - W 17 20 9 11 - - -
16/06:00am - - - - - WSW 13 17 7 9 - - -
16/05:30am - - - - - W 9 13 5 7 - - -
16/05:00am - - - - - W 9 13 5 7 - - -
16/04:30am - - - - - WSW 13 15 7 8 - - -
16/04:00am - - - - - W 11 15 6 8 - - -
16/03:30am - - - - - W 9 13 5 7 - - -
16/03:00am - - - - - E 9 17 5 9 - - -
16/02:30am - - - - - ESE 28 35 15 19 - - -
16/02:00am - - - - - ESE 15 26 8 14 - - -
16/01:30am - - - - - E 41 54 22 29 - - -
16/01:00am - - - - - E 41 50 22 27 - - -
16/12:30am - - - - - E 43 52 23 28 - - -
16/12:00am - - - - - E 46 54 25 29 - - -
 
Date/Time
EST
Temp
°C
App
Temp
°C
Dew
Point
Rel
Hum
%
Delta-T
°C
Wind Press
QNH
hPa
Press
MSL
hPa
Rain
since 9 am
mm
Dir
 
Spd
km/h
Gust
km/h
Spd
kts
Gust
kts
15/11:30pm - - - - - E 50 57 27 31 - - -
15/11:00pm - - - - - E 52 63 28 34 - - -
15/10:30pm - - - - - E 48 59 26 32 - - -
15/10:00pm - - - - - E 48 56 26 30 - - -
15/09:30pm - - - - - E 52 61 28 33 - - -
15/09:00pm - - - - - E 48 59 26 32 - - -
15/08:30pm - - - - - E 43 50 23 27 - - -
15/08:00pm - - - - - E 32 37 17 20 - - -
15/07:30pm - - - - - E 32 39 17 21 - - -
15/07:00pm - - - - - E 30 33 16 18 - - -
15/06:30pm - - - - - E 30 35 16 19 - - -
15/06:00pm - - - - - ESE 22 33 12 18 - - -
15/05:30pm - - - - - ESE 28 33 15 18 - - -
15/05:00pm - - - - - ESE 37 48 20 26 - - -
15/04:53pm - - - - - ESE 35 46 19 25 - - -
15/04:30pm - - - - - SE 22 28 12 15 - - -
15/04:00pm - - - - - ESE 28 35 15 19 - - -
15/03:30pm - - - - - SE 24 28 13 15 - - -
15/03:00pm - - - - - SE 30 33 16 18 - - -
15/02:30pm - - - - - SE 28 32 15 17 - - -
15/02:00pm - - - - - SSE 24 28 13 15 - - -
15/01:30pm - - - - - SSE 28 28 15 15 - - -
15/01:00pm - - - - - SSE 19 20 10 11 - - -
15/12:30pm - - - - - SE 9 11 5 6 - - -
15/12:00pm - - - - - ESE 9 11 5 6 - - -
15/11:30am - - - - - E 15 19 8 10 - - -
15/11:00am - - - - - E 11 13 6 7 - - -
15/10:30am - - - - - ENE 13 15 7 8 - - -
15/10:00am - - - - - ENE 20 22 11 12 - - -
15/09:30am - - - - - E 19 22 10 12 - - -
15/09:00am - - - - - E 20 24 11 13 - - -
15/08:30am - - - - - ESE 13 17 7 9 - - -
15/08:00am - - - - - ESE 15 19 8 10 - - -
15/07:30am - - - - - E 15 17 8 9 - - -
15/07:00am - - - - - E 13 19 7 10 - - -
15/06:30am - - - - - E 9 13 5 7 - - -
15/06:00am - - - - - ESE 9 11 5 6 - - -
15/05:30am - - - - - SSE 13 15 7 8 - - -
15/05:00am - - - - - SSE 7 9 4 5 - - -
15/04:30am - - - - - ESE 9 13 5 7 - - -
15/04:00am - - - - - ESE 13 17 7 9 - - -
15/03:30am - - - - - ESE 9 13 5 7 - - -
15/03:00am - - - - - E 7 9 4 5 - - -
15/02:30am - - - - - ESE 7 9 4 5 - - -
15/02:00am - - - - - SE 13 13 7 7 - - -
15/01:30am - - - - - E 6 7 3 4 - - -
15/01:00am - - - - - ENE 7 7 4 4 - - -
15/12:30am - - - - - SE 7 7 4 4 - - -
15/12:00am - - - - - CALM 0 0 0 0 - - -
 
Date/Time
EST
Temp
°C
App
Temp
°C
Dew
Point
Rel
Hum
%
Delta-T
°C
Wind Press
QNH
hPa
Press
MSL
hPa
Rain
since 9 am
mm
Dir
 
Spd
km/h
Gust
km/h
Spd
kts
Gust
kts
14/11:30pm - - - - - S 6 6 3 3 - - -
14/11:00pm - - - - - CALM 0 7 0 4 - - -
14/10:30pm - - - - - SE 9 11 5 6 - - -
14/10:00pm - - - - - SSE 13 15 7 8 - - -
14/09:30pm - - - - - SE 13 13 7 7 - - -
14/09:00pm - - - - - SE 15 17 8 9 - - -
14/08:30pm - - - - - SSE 17 20 9 11 - - -
14/08:00pm - - - - - SSE 17 20 9 11 - - -
14/07:30pm - - - - - S 20 26 11 14 - - -
14/07:00pm - - - - - S 20 24 11 13 - - -
14/06:30pm - - - - - S 22 26 12 14 - - -
14/06:00pm - - - - - S 26 30 14 16 - - -
14/05:30pm - - - - - S 26 30 14 16 - - -
14/05:00pm - - - - - S 28 32 15 17 - - -
14/04:30pm - - - - - S 30 33 16 18 - - -
14/04:00pm - - - - - S 26 30 14 16 - - -
14/03:30pm - - - - - S 24 28 13 15 - - -
14/03:00pm - - - - - S 22 26 12 14 - - -
14/02:30pm - - - - - SSW 17 19 9 10 - - -
14/02:00pm - - - - - SSW 13 15 7 8 - - -
14/01:30pm - - - - - SE 4 7 2 4 - - -
14/01:00pm - - - - - ESE 7 9 4 5 - - -
14/12:30pm - - - - - ESE 9 11 5 6 - - -
14/12:00pm - - - - - ENE 9 11 5 6 - - -
14/11:30am - - - - - E 6 7 3 4 - - -
14/11:00am - - - - - N 9 11 5 6 - - -
14/10:30am - - - - - N 17 19 9 10 - - -
14/10:00am - - - - - N 17 19 9 10 - - -
14/09:30am - - - - - NNE 11 13 6 7 - - -
14/09:00am - - - - - N 9 11 5 6 - - -
14/08:30am - - - - - NNW 11 13 6 7 - - -
14/08:00am - - - - - NNW 15 17 8 9 - - -
14/07:30am - - - - - N 19 22 10 12 - - -
14/07:00am - - - - - N 19 20 10 11 - - -
14/06:30am - - - - - NNW 19 20 10 11 - - -
14/06:00am - - - - - NNW 20 22 11 12 - - -
14/05:30am - - - - - NNW 20 22 11 12 - - -
14/05:00am - - - - - NNW 19 24 10 13 - - -
14/04:30am - - - - - NNW 20 26 11 14 - - -
14/04:00am - - - - - NNW 17 20 9 11 - - -
14/03:30am - - - - - NNW 19 20 10 11 - - -
14/03:00am - - - - - NNW 15 17 8 9 - - -
14/02:30am - - - - - NNW 15 17 8 9 - - -
14/02:00am - - - - - NW 15 17 8 9 - - -
14/01:30am - - - - - NNW 15 17 8 9 - - -
14/01:00am - - - - - NNW 15 17 8 9 - - -
14/12:30am - - - - - N 13 15 7 8 - - -
14/12:00am - - - - - N 11 13 6 7 - - -
 
Date/Time
EST
Temp
°C
App
Temp
°C
Dew
Point
Rel
Hum
%
Delta-T
°C
Wind Press
QNH
hPa
Press
MSL
hPa
Rain
since 9 am
mm
Dir
 
Spd
km/h
Gust
km/h
Spd
kts
Gust
kts
13/11:30pm - - - - - N 9 11 5 6 - - -
13/11:00pm - - - - - NNE 9 9 5 5 - - -
13/10:30pm - - - - - NNE 7 7 4 4 - - -
13/10:00pm - - - - - NE 9 11 5 6 - - -
13/09:30pm - - - - - NE 13 13 7 7 - - -
13/09:00pm - - - - - CALM 0 6 0 3 - - -
13/08:30pm - - - - - SW 11 13 6 7 - - -
13/08:00pm - - - - - SW 13 17 7 9 - - -
13/07:30pm - - - - - S 13 15 7 8 - - -
13/07:00pm - - - - - S 11 13 6 7 - - -
13/06:30pm - - - - - S 13 15 7 8 - - -
13/06:00pm - - - - - S 15 17 8 9 - - -
13/05:30pm - - - - - S 15 19 8 10 - - -
13/05:00pm - - - - - SSW 17 17 9 9 - - -
13/04:30pm - - - - - S 9 9 5 5 - - -
13/04:00pm - - - - - ESE 7 9 4 5 - - -
13/03:30pm - - - - - E 11 11 6 6 - - -
13/03:00pm - - - - - E 9 11 5 6 - - -

Other Formats:

Comma delimited format used in spreadsheet applications
http://www.bom.gov.au/fwo/IDV60801/IDV60801.94853.axf

JavaScript Object Notation format (JSON) in row-major order
http://www.bom.gov.au/fwo/IDV60801/IDV60801.94853.json